Time;durP1;ratioP1;P1;durP2;ratioP2;P2;SDS_P1;SDS_P2;PMS_P1;PMS_P2;Temp;Humidity;BMP_temperature;BMP_pressure;BME280_temperature;BME280_humidity;BME280_pressure;Samples;Min_cycle;Max_cycle;Signal;HPM_P1;HPM_P2
2023/10/20 00:00:06;;;;;;;92.80;39.40;;;7.80;99.90;;;;;;8401289;28;20212;-61
2023/10/20 00:04:07;;;;;;;63.37;29.93;;;7.80;99.90;;;;;;8398750;28;20207;-61
2023/10/20 00:08:07;;;;;;;58.90;27.97;;;7.80;99.90;;;;;;8400929;28;20234;-61
2023/10/20 00:12:10;;;;;;;57.37;29.80;;;7.80;99.90;;;;;;8399393;28;20219;-60
2023/10/20 00:16:10;;;;;;;60.80;30.57;;;7.80;99.90;;;;;;8401835;28;20173;-61
2023/10/20 00:20:12;;;;;;;68.63;31.47;;;7.80;99.90;;;;;;8399773;28;20196;-61
2023/10/20 00:24:13;;;;;;;67.93;32.87;;;7.80;99.90;;;;;;8399353;28;20187;-60
2023/10/20 00:28:14;;;;;;;78.90;34.50;;;7.70;99.90;;;;;;8396778;28;20201;-61
2023/10/20 00:32:14;;;;;;;61.63;29.73;;;7.70;99.90;;;;;;8399445;28;20208;-61
2023/10/20 00:36:17;;;;;;;77.30;35.47;;;7.70;99.90;;;;;;8396836;28;20181;-58
2023/10/20 00:40:19;;;;;;;59.43;28.50;;;7.70;99.90;;;;;;8398587;28;20197;-62
2023/10/20 00:44:20;;;;;;;80.13;33.47;;;7.70;99.90;;;;;;8407119;28;20181;-58
2023/10/20 00:48:21;;;;;;;77.37;33.73;;;7.70;99.90;;;;;;8404231;28;20192;-58
2023/10/20 00:52:23;;;;;;;76.30;33.60;;;7.70;99.90;;;;;;8420279;27;20671;-62
2023/10/20 00:56:24;;;;;;;63.03;29.43;;;7.70;99.90;;;;;;8405955;28;20195;-61
2023/10/20 01:00:25;;;;;;;74.17;37.50;;;7.70;99.90;;;;;;8404415;28;20207;-63
2023/10/20 01:04:26;;;;;;;117.87;69.03;;;7.70;99.90;;;;;;8399777;28;20200;-64
2023/10/20 01:08:26;;;;;;;88.90;45.33;;;7.70;99.90;;;;;;8406024;28;20216;-61
2023/10/20 01:12:27;;;;;;;79.97;42.70;;;7.70;99.90;;;;;;8403503;28;20196;-60
2023/10/20 01:16:28;;;;;;;162.97;70.00;;;7.60;99.90;;;;;;8404746;28;20214;-60
2023/10/20 01:20:29;;;;;;;94.00;49.23;;;7.60;99.90;;;;;;8403896;28;20180;-59
2023/10/20 01:24:31;;;;;;;93.20;50.43;;;7.70;99.90;;;;;;8405281;28;20181;-60
2023/10/20 01:28:32;;;;;;;107.83;44.50;;;7.60;99.90;;;;;;8404417;28;20180;-62
2023/10/20 01:32:33;;;;;;;99.77;47.40;;;7.70;99.90;;;;;;8403713;28;20238;-60
2023/10/20 01:36:35;;;;;;;80.93;42.70;;;7.60;99.90;;;;;;8400628;28;20207;-62
2023/10/20 01:40:35;;;;;;;135.77;57.43;;;7.60;99.90;;;;;;8391657;28;20311;-64
2023/10/20 01:44:39;;;;;;;78.70;34.20;;;7.60;99.90;;;;;;8404554;28;20185;-60
2023/10/20 01:48:39;;;;;;;253.70;85.27;;;7.60;99.90;;;;;;8408146;28;20216;-62
2023/10/20 01:52:40;;;;;;;161.27;95.47;;;7.60;99.90;;;;;;8402517;28;20219;-61
2023/10/20 01:56:41;;;;;;;151.27;59.10;;;7.60;99.90;;;;;;8402282;28;20185;-61
2023/10/20 02:00:42;;;;;;;173.87;63.37;;;7.60;99.90;;;;;;8402860;28;20201;-62
2023/10/20 02:04:43;;;;;;;126.90;49.10;;;7.60;99.90;;;;;;8401611;28;20272;-60
2023/10/20 02:08:43;;;;;;;98.67;39.77;;;7.60;99.90;;;;;;8402950;28;20184;-60
2023/10/20 02:12:44;;;;;;;72.73;33.13;;;7.50;99.90;;;;;;8402616;28;20250;-60
2023/10/20 02:16:45;;;;;;;72.10;33.60;;;7.50;99.90;;;;;;8401906;28;20181;-60
2023/10/20 02:20:56;;;;;;;77.97;36.03;;;7.50;99.90;;;;;;8403468;28;20180;-59
2023/10/20 02:24:57;;;;;;;131.90;79.70;;;7.50;99.90;;;;;;8418169;27;20203;-58
2023/10/20 02:28:58;;;;;;;140.17;57.10;;;7.50;99.90;;;;;;8401452;28;20177;-60
2023/10/20 02:33:00;;;;;;;94.53;42.57;;;7.60;99.90;;;;;;8403711;28;20219;-61
2023/10/20 02:37:02;;;;;;;93.60;42.40;;;7.50;99.90;;;;;;8403142;28;20187;-62
2023/10/20 02:41:03;;;;;;;76.77;35.37;;;7.50;99.90;;;;;;8400334;28;20212;-60
2023/10/20 02:45:10;;;;;;;62.50;32.17;;;7.50;99.90;;;;;;8403800;28;20181;-59
2023/10/20 02:49:11;;;;;;;59.77;29.43;;;7.50;99.90;;;;;;8400859;28;20264;-60
2023/10/20 02:53:15;;;;;;;59.67;28.90;;;7.50;99.90;;;;;;8403067;28;20208;-59
2023/10/20 02:57:16;;;;;;;59.30;28.70;;;7.50;99.90;;;;;;8399721;28;20393;-60
2023/10/20 03:01:17;;;;;;;56.43;28.03;;;7.50;99.90;;;;;;8400679;28;20208;-62
2023/10/20 03:05:20;;;;;;;59.13;27.23;;;7.50;99.90;;;;;;8400859;28;20188;-62
2023/10/20 03:09:22;;;;;;;54.87;30.07;;;7.50;99.90;;;;;;8399321;28;20267;-60
2023/10/20 03:13:26;;;;;;;55.87;28.47;;;7.50;99.90;;;;;;8401318;28;20239;-61
2023/10/20 03:17:27;;;;;;;63.10;34.30;;;7.50;99.90;;;;;;8399049;28;20184;-60
2023/10/20 03:21:28;;;;;;;61.47;32.10;;;7.50;99.90;;;;;;8399986;28;20184;-61
2023/10/20 03:25:33;;;;;;;58.63;29.63;;;7.50;99.90;;;;;;8406636;28;20195;-63
2023/10/20 03:29:33;;;;;;;56.20;27.57;;;7.50;99.90;;;;;;8404192;28;20187;-65
2023/10/20 03:33:35;;;;;;;60.07;28.47;;;7.50;99.90;;;;;;8401846;28;20220;-64
2023/10/20 03:37:38;;;;;;;57.53;27.83;;;7.50;99.90;;;;;;8407179;28;20307;-64
2023/10/20 03:41:40;;;;;;;52.60;26.50;;;7.50;99.90;;;;;;8403100;28;20240;-64
2023/10/20 03:45:48;;;;;;;61.90;28.40;;;7.50;99.90;;;;;;8400719;28;20242;-65
2023/10/20 03:49:50;;;;;;;59.80;29.03;;;7.50;99.90;;;;;;8400602;28;20251;-65
2023/10/20 03:53:52;;;;;;;64.00;29.53;;;7.50;99.90;;;;;;8399469;28;20227;-66
2023/10/20 03:57:53;;;;;;;61.80;29.67;;;7.50;99.90;;;;;;8399988;28;20184;-65
2023/10/20 04:01:53;;;;;;;68.27;30.20;;;7.50;99.90;;;;;;8399662;28;20204;-63
2023/10/20 04:05:54;;;;;;;75.47;30.97;;;7.50;99.90;;;;;;8401651;28;20294;-63
2023/10/20 04:09:55;;;;;;;71.23;30.23;;;7.50;99.90;;;;;;8392156;28;20181;-64
2023/10/20 04:13:56;;;;;;;74.00;32.77;;;7.50;99.90;;;;;;8400556;28;20229;-67
2023/10/20 04:17:56;;;;;;;71.97;32.60;;;7.50;99.90;;;;;;8404152;28;20248;-63
2023/10/20 04:21:58;;;;;;;76.30;35.17;;;7.50;99.90;;;;;;8404574;28;20184;-63
2023/10/20 04:26:03;;;;;;;76.10;34.13;;;7.50;99.90;;;;;;8398268;28;20184;-67
2023/10/20 04:52:04;;;;;;;91.20;39.40;;;7.50;99.90;;;;;;8406909;28;20215;-61
2023/10/20 05:08:23;;;;;;;81.40;36.83;;;7.40;99.90;;;;;;8404700;28;20589;-63
2023/10/20 05:12:24;;;;;;;94.37;43.70;;;7.50;99.90;;;;;;8402576;28;20205;-61
2023/10/20 05:16:26;;;;;;;82.73;38.17;;;7.40;99.90;;;;;;8405677;28;20571;-62
2023/10/20 05:20:26;;;;;;;80.17;36.50;;;7.40;99.90;;;;;;8421093;27;20223;-59
2023/10/20 05:24:27;;;;;;;85.17;38.83;;;7.50;99.90;;;;;;8405740;28;20188;-61
2023/10/20 05:28:29;;;;;;;90.87;41.90;;;7.50;99.90;;;;;;8403978;28;20495;-60
2023/10/20 05:32:34;;;;;;;86.03;37.50;;;7.50;99.90;;;;;;8405853;28;20228;-61
2023/10/20 05:36:35;;;;;;;87.43;38.87;;;7.50;99.90;;;;;;8401857;28;20192;-60
2023/10/20 05:40:36;;;;;;;80.17;36.73;;;7.50;99.90;;;;;;8403912;28;20293;-61
2023/10/20 05:44:47;;;;;;;82.73;36.83;;;7.40;99.90;;;;;;8401496;28;20182;-62
2023/10/20 05:48:48;;;;;;;86.10;36.40;;;7.40;99.90;;;;;;8416001;27;20184;-61
2023/10/20 05:52:52;;;;;;;88.97;39.40;;;7.50;99.90;;;;;;8404994;28;20289;-64
2023/10/20 05:56:56;;;;;;;88.80;37.43;;;7.50;99.90;;;;;;8401253;28;20179;-67
2023/10/20 06:01:03;;;;;;;82.20;36.03;;;7.50;99.90;;;;;;8401936;28;20200;-63
2023/10/20 06:05:04;;;;;;;83.73;38.93;;;7.50;99.90;;;;;;8401958;28;20238;-66
2023/10/20 06:09:09;;;;;;;75.17;35.80;;;7.50;99.90;;;;;;8400788;28;20212;-66
2023/10/20 06:13:09;;;;;;;77.90;36.70;;;7.50;99.90;;;;;;8401002;28;20212;-65
2023/10/20 06:17:11;;;;;;;82.00;39.40;;;7.50;99.90;;;;;;8393367;28;20185;-63
2023/10/20 06:21:14;;;;;;;89.77;43.20;;;7.50;99.90;;;;;;8400464;28;20181;-70
2023/10/20 06:25:14;;;;;;;83.07;38.23;;;7.50;99.90;;;;;;8398733;28;20188;-66
2023/10/20 06:29:28;;;;;;;83.00;37.37;;;7.50;99.90;;;;;;8405437;28;20268;-65
2023/10/20 06:33:33;;;;;;;87.10;37.60;;;7.50;99.90;;;;;;8401076;28;20212;-65
2023/10/20 06:37:41;;;;;;;77.80;35.30;;;7.50;99.90;;;;;;8400053;28;20177;-68
2023/10/20 06:41:42;;;;;;;73.73;34.93;;;7.60;99.90;;;;;;8399909;28;20397;-64
2023/10/20 06:45:44;;;;;;;77.70;36.47;;;7.60;99.90;;;;;;8402996;28;20216;-64
2023/10/20 06:49:44;;;;;;;81.23;36.93;;;7.60;99.90;;;;;;8399346;28;20241;-63
2023/10/20 06:53:45;;;;;;;73.07;35.90;;;7.60;99.90;;;;;;8395338;28;20236;-66
2023/10/20 06:57:46;;;;;;;76.03;35.00;;;7.60;99.90;;;;;;8398063;28;20184;-66
2023/10/20 07:01:47;;;;;;;76.27;35.33;;;7.60;99.90;;;;;;8403194;28;20232;-65
2023/10/20 07:05:50;;;;;;;76.93;34.80;;;7.70;99.90;;;;;;8403638;28;20247;-63
2023/10/20 07:09:51;;;;;;;77.13;34.77;;;7.70;99.90;;;;;;8400880;28;20204;-61
2023/10/20 07:13:51;;;;;;;77.67;35.47;;;7.70;99.90;;;;;;8402671;28;20215;-64
2023/10/20 07:17:52;;;;;;;69.97;32.90;;;7.70;99.90;;;;;;8404454;28;20615;-67
2023/10/20 07:21:54;;;;;;;73.67;34.50;;;7.70;99.90;;;;;;8404390;28;20192;-63
2023/10/20 07:25:54;;;;;;;70.23;34.13;;;7.70;99.90;;;;;;8403795;28;20181;-63
2023/10/20 07:29:57;;;;;;;80.77;35.97;;;7.70;99.90;;;;;;8404974;28;20261;-62
2023/10/20 07:33:58;;;;;;;72.17;34.47;;;7.70;99.90;;;;;;8403610;28;20496;-63
2023/10/20 07:37:58;;;;;;;72.70;33.93;;;7.80;99.90;;;;;;8401452;28;20177;-62
2023/10/20 07:41:59;;;;;;;86.03;39.73;;;7.80;99.90;;;;;;8399997;28;20291;-62
2023/10/20 07:46:00;;;;;;;73.77;34.73;;;7.90;99.90;;;;;;8406133;28;20194;-64
2023/10/20 07:50:06;;;;;;;68.27;35.27;;;8.00;99.90;;;;;;8397366;28;20192;-69
2023/10/20 07:54:11;;;;;;;70.73;34.90;;;8.00;99.90;;;;;;8404416;28;20217;-65
2023/10/20 07:58:11;;;;;;;63.57;31.83;;;8.00;99.90;;;;;;8406393;28;20189;-63
2023/10/20 08:02:14;;;;;;;67.43;32.10;;;8.00;99.90;;;;;;8401800;28;20326;-63
2023/10/20 08:06:15;;;;;;;72.83;35.27;;;8.00;99.90;;;;;;8403473;28;20181;-67
2023/10/20 08:10:16;;;;;;;62.00;32.77;;;8.00;99.90;;;;;;8401625;28;20288;-63
2023/10/20 08:14:22;;;;;;;68.30;33.47;;;8.00;99.90;;;;;;8404285;28;20204;-62
2023/10/20 08:18:23;;;;;;;72.17;33.90;;;8.10;99.90;;;;;;8403545;28;20197;-65
2023/10/20 08:22:24;;;;;;;68.70;32.07;;;8.10;99.90;;;;;;8398616;28;20211;-63
2023/10/20 08:26:25;;;;;;;72.03;33.80;;;8.10;99.90;;;;;;8400047;28;20184;-63
2023/10/20 08:30:25;;;;;;;62.47;31.03;;;8.20;99.90;;;;;;8398913;28;20195;-66
2023/10/20 08:34:26;;;;;;;72.43;35.00;;;8.20;99.90;;;;;;8396411;28;20208;-63
2023/10/20 08:38:27;;;;;;;74.27;34.57;;;8.20;99.90;;;;;;8397465;28;20181;-69
2023/10/20 08:42:29;;;;;;;82.70;36.07;;;8.20;99.90;;;;;;8398976;28;20189;-63
2023/10/20 08:46:30;;;;;;;70.70;33.87;;;8.20;99.90;;;;;;8400382;28;20235;-61
2023/10/20 08:50:32;;;;;;;67.83;33.77;;;8.30;99.90;;;;;;8401239;28;20198;-63
2023/10/20 08:54:33;;;;;;;71.40;33.43;;;8.20;99.90;;;;;;8399064;28;20200;-62
2023/10/20 08:58:35;;;;;;;65.30;32.07;;;8.20;99.90;;;;;;8398709;28;20177;-66
2023/10/20 09:02:37;;;;;;;76.77;35.13;;;8.20;99.90;;;;;;8404301;28;20181;-67
2023/10/20 09:06:38;;;;;;;69.63;33.40;;;8.30;99.90;;;;;;8404689;28;20180;-63
2023/10/20 09:10:45;;;;;;;60.10;31.83;;;8.30;99.90;;;;;;8405434;28;20237;-65
2023/10/20 09:14:46;;;;;;;63.33;31.50;;;8.30;99.90;;;;;;8403832;28;20212;-64
2023/10/20 09:18:51;;;;;;;66.10;31.90;;;8.30;99.90;;;;;;8405963;28;20177;-65
2023/10/20 09:22:52;;;;;;;63.33;33.63;;;8.20;99.90;;;;;;8405348;28;20195;-61
2023/10/20 09:26:56;;;;;;;62.77;32.50;;;8.30;99.90;;;;;;8406460;28;20193;-64
2023/10/20 09:30:59;;;;;;;70.50;37.27;;;8.30;99.90;;;;;;8406759;28;20249;-61
2023/10/20 09:34:59;;;;;;;67.87;34.00;;;8.30;99.90;;;;;;8404087;28;20274;-66
2023/10/20 09:39:05;;;;;;;70.60;35.67;;;8.30;99.90;;;;;;8406404;28;20189;-65
2023/10/20 09:43:24;;;;;;;72.10;35.50;;;8.30;99.90;;;;;;8407849;28;20224;-63
2023/10/20 09:47:29;;;;;;;65.87;32.23;;;8.30;99.90;;;;;;8408381;28;20189;-64
2023/10/20 09:51:32;;;;;;;63.20;33.40;;;8.40;99.90;;;;;;8406313;28;20206;-65
2023/10/20 09:55:33;;;;;;;62.67;32.73;;;8.40;99.90;;;;;;8404614;28;20266;-64
2023/10/20 09:59:38;;;;;;;60.67;32.03;;;8.40;99.90;;;;;;8404311;28;20201;-67
2023/10/20 10:03:42;;;;;;;64.90;32.40;;;8.40;99.90;;;;;;8411281;28;20255;-63
2023/10/20 10:07:44;;;;;;;58.03;32.30;;;8.40;99.90;;;;;;8403062;28;20492;-65
2023/10/20 10:11:45;;;;;;;59.40;32.97;;;8.30;99.90;;;;;;8405144;28;20197;-66
2023/10/20 10:15:47;;;;;;;52.17;28.73;;;8.30;99.90;;;;;;8402377;28;20227;-62
2023/10/20 10:19:51;;;;;;;61.43;30.40;;;8.30;99.90;;;;;;8403180;28;20204;-63
2023/10/20 10:24:11;;;;;;;63.33;30.77;;;8.30;99.90;;;;;;8400662;28;20199;-63
2023/10/20 10:28:19;;;;;;;55.20;29.23;;;8.30;99.90;;;;;;8405424;28;20292;-62
2023/10/20 10:32:22;;;;;;;51.70;29.77;;;8.40;99.90;;;;;;8403589;28;20211;-63
2023/10/20 10:36:23;;;;;;;57.00;30.30;;;8.40;99.90;;;;;;8402496;28;20185;-62
2023/10/20 10:40:30;;;;;;;55.37;30.07;;;8.50;99.90;;;;;;8408768;28;20230;-61
2023/10/20 10:44:37;;;;;;;56.63;29.67;;;8.50;99.90;;;;;;8404430;28;20216;-64
2023/10/20 10:48:40;;;;;;;59.17;32.13;;;8.50;99.90;;;;;;8402048;28;20184;-62
2023/10/20 10:52:41;;;;;;;51.80;28.10;;;8.50;99.90;;;;;;8401120;28;20235;-61
2023/10/20 10:56:43;;;;;;;52.80;29.07;;;8.60;99.90;;;;;;8400880;28;20280;-62
2023/10/20 11:00:45;;;;;;;53.27;29.17;;;8.60;99.90;;;;;;8399429;28;20323;-62
2023/10/20 11:04:46;;;;;;;48.70;27.43;;;8.60;99.90;;;;;;8401715;28;20514;-61
2023/10/20 11:08:47;;;;;;;50.30;27.53;;;8.60;99.90;;;;;;8397215;28;20212;-62
2023/10/20 11:12:49;;;;;;;47.13;27.27;;;8.60;99.90;;;;;;8401270;28;20525;-64
2023/10/20 11:16:50;;;;;;;42.07;26.23;;;8.60;99.90;;;;;;8401853;28;20234;-61
2023/10/20 11:20:53;;;;;;;45.87;26.37;;;8.60;99.90;;;;;;8403011;28;20181;-65
2023/10/20 11:24:55;;;;;;;47.20;27.00;;;8.60;99.90;;;;;;8402403;28;20230;-63
2023/10/20 11:28:57;;;;;;;46.73;24.83;;;8.60;99.90;;;;;;8404785;28;20196;-64
2023/10/20 11:32:59;;;;;;;41.73;26.10;;;8.60;99.90;;;;;;8399724;28;20212;-66
2023/10/20 11:37:00;;;;;;;45.77;27.73;;;8.70;99.90;;;;;;8400207;28;20208;-68
2023/10/20 11:41:01;;;;;;;43.90;25.73;;;8.70;99.90;;;;;;8400689;28;20276;-63
2023/10/20 11:45:02;;;;;;;48.10;28.20;;;8.60;99.90;;;;;;8401515;28;20188;-62
2023/10/20 11:49:03;;;;;;;47.77;26.57;;;8.60;99.90;;;;;;8403768;28;20227;-63
2023/10/20 11:53:07;;;;;;;44.67;26.57;;;8.70;99.90;;;;;;8400173;28;20205;-62
2023/10/20 11:57:08;;;;;;;36.77;22.73;;;8.70;99.90;;;;;;8403324;28;20199;-67
2023/10/20 12:01:09;;;;;;;30.93;20.77;;;8.80;99.90;;;;;;8401226;28;20197;-66
2023/10/20 12:05:10;;;;;;;37.37;24.13;;;8.80;99.90;;;;;;8417434;28;20188;-67
2023/10/20 12:09:11;;;;;;;41.37;22.83;;;8.80;99.90;;;;;;8403197;28;20189;-63
2023/10/20 12:13:12;;;;;;;37.03;25.53;;;8.80;99.90;;;;;;8403216;28;20335;-65
2023/10/20 12:17:13;;;;;;;36.80;25.93;;;8.80;99.90;;;;;;8400339;28;20227;-62
2023/10/20 12:21:14;;;;;;;28.90;19.83;;;8.80;99.90;;;;;;8399728;28;20181;-63
2023/10/20 12:25:15;;;;;;;29.47;21.27;;;8.80;99.90;;;;;;8399941;28;20177;-62
2023/10/20 12:29:19;;;;;;;35.43;24.27;;;8.80;99.90;;;;;;8417286;28;20249;-64
2023/10/20 12:33:20;;;;;;;33.50;23.63;;;8.80;99.90;;;;;;8398946;28;20313;-64
2023/10/20 12:37:21;;;;;;;34.93;23.53;;;8.80;99.90;;;;;;8401991;28;20256;-63
2023/10/20 12:41:22;;;;;;;32.53;22.93;;;8.90;99.90;;;;;;8404365;28;20196;-65
2023/10/20 12:45:23;;;;;;;32.20;22.40;;;8.90;99.90;;;;;;8408042;28;20219;-62
2023/10/20 12:49:24;;;;;;;40.53;23.63;;;8.90;99.90;;;;;;8405959;28;20220;-64
2023/10/20 12:53:25;;;;;;;38.77;23.70;;;8.90;99.90;;;;;;8406242;28;20208;-66
2023/10/20 12:57:26;;;;;;;41.43;25.17;;;8.90;99.90;;;;;;8411991;28;20185;-68
2023/10/20 13:01:26;;;;;;;30.13;20.57;;;8.90;99.90;;;;;;8405525;28;20200;-69
2023/10/20 13:05:27;;;;;;;32.70;21.17;;;8.90;99.90;;;;;;8403255;28;20226;-65
2023/10/20 13:09:28;;;;;;;35.83;24.30;;;9.00;99.90;;;;;;8402933;28;20198;-65
2023/10/20 13:13:32;;;;;;;44.83;27.57;;;9.00;99.90;;;;;;8400896;28;20204;-67
2023/10/20 13:17:33;;;;;;;39.20;26.00;;;9.00;99.90;;;;;;8400763;28;20284;-66
2023/10/20 13:21:34;;;;;;;44.13;27.37;;;8.90;99.90;;;;;;8420440;27;20185;-66
2023/10/20 13:25:35;;;;;;;45.53;28.73;;;9.00;99.90;;;;;;8399944;28;20182;-64
2023/10/20 13:29:35;;;;;;;39.73;24.17;;;9.00;99.90;;;;;;8404391;28;20182;-70
2023/10/20 13:33:37;;;;;;;50.50;28.70;;;9.00;99.90;;;;;;8401509;28;20324;-63
2023/10/20 13:37:39;;;;;;;45.63;26.73;;;8.90;99.90;;;;;;8402654;28;20180;-64
2023/10/20 13:41:40;;;;;;;52.70;28.07;;;8.90;99.90;;;;;;8401510;28;20177;-67
2023/10/20 13:45:40;;;;;;;54.80;30.73;;;8.90;99.90;;;;;;8405661;28;20211;-64
2023/10/20 13:49:41;;;;;;;54.53;30.73;;;9.00;99.90;;;;;;8395243;28;20192;-67
2023/10/20 13:53:42;;;;;;;40.60;27.40;;;9.00;99.90;;;;;;8400973;28;20223;-63
2023/10/20 13:57:43;;;;;;;42.60;28.13;;;9.00;99.90;;;;;;8400373;28;20188;-65
2023/10/20 14:01:45;;;;;;;50.40;30.73;;;9.00;99.90;;;;;;8402098;28;20212;-64
2023/10/20 14:05:54;;;;;;;48.93;28.20;;;9.00;99.90;;;;;;8403869;28;20186;-68
2023/10/20 14:09:55;;;;;;;47.57;30.60;;;9.00;99.90;;;;;;8402145;28;20185;-62
2023/10/20 14:13:56;;;;;;;57.43;33.87;;;9.00;99.90;;;;;;8396626;28;21294;-64
2023/10/20 14:17:57;;;;;;;50.57;30.87;;;9.00;99.90;;;;;;8400289;28;20192;-63
2023/10/20 14:21:58;;;;;;;51.67;29.77;;;9.00;99.90;;;;;;8402922;28;20582;-67
2023/10/20 14:26:00;;;;;;;53.73;29.10;;;9.00;99.90;;;;;;8401384;28;20267;-70
2023/10/20 14:30:05;;;;;;;51.57;31.07;;;9.00;99.90;;;;;;8400625;28;20189;-65
2023/10/20 14:34:07;;;;;;;51.80;31.00;;;9.00;99.90;;;;;;8398206;28;20224;-64
2023/10/20 14:38:08;;;;;;;58.93;33.87;;;9.00;99.90;;;;;;8398137;28;20242;-67
2023/10/20 14:42:09;;;;;;;46.97;29.13;;;8.90;99.90;;;;;;8398532;28;20184;-65
2023/10/20 14:46:09;;;;;;;51.27;30.17;;;9.00;99.90;;;;;;8400581;28;20215;-65
2023/10/20 14:50:10;;;;;;;49.90;29.63;;;9.00;99.90;;;;;;8398709;28;20186;-67
2023/10/20 14:54:13;;;;;;;53.67;30.13;;;8.90;99.90;;;;;;8403423;28;20277;-65
2023/10/20 14:58:14;;;;;;;55.73;32.70;;;8.90;99.90;;;;;;8397347;28;20185;-64
2023/10/20 15:02:15;;;;;;;48.73;30.83;;;9.00;99.90;;;;;;8394679;28;20204;-63
2023/10/20 15:06:17;;;;;;;61.60;33.87;;;8.90;99.90;;;;;;8396577;28;20189;-66
2023/10/20 15:10:18;;;;;;;68.53;39.67;;;8.90;99.90;;;;;;8400932;28;20305;-63
2023/10/20 15:14:18;;;;;;;74.33;39.70;;;8.90;99.90;;;;;;8404673;28;20560;-66
2023/10/20 15:18:19;;;;;;;61.50;37.33;;;8.90;99.90;;;;;;8399149;28;20422;-67
2023/10/20 15:22:20;;;;;;;88.43;45.90;;;8.90;99.90;;;;;;8398541;28;20188;-65
2023/10/20 15:26:21;;;;;;;62.17;35.80;;;8.90;99.90;;;;;;8395954;28;20214;-64
2023/10/20 15:30:22;;;;;;;70.20;39.10;;;8.90;99.90;;;;;;8399369;28;20249;-65
2023/10/20 15:34:23;;;;;;;64.40;37.83;;;8.90;99.90;;;;;;8399562;28;20211;-63
2023/10/20 15:38:24;;;;;;;64.27;35.90;;;8.90;99.90;;;;;;8399845;28;20189;-62
2023/10/20 15:42:25;;;;;;;70.97;39.67;;;8.90;99.90;;;;;;8397305;28;20513;-70
2023/10/20 15:46:25;;;;;;;72.37;36.50;;;8.80;99.90;;;;;;8400576;28;20185;-65
2023/10/20 15:50:26;;;;;;;59.33;31.97;;;8.80;99.90;;;;;;8397362;28;20193;-63
2023/10/20 15:54:27;;;;;;;65.53;37.90;;;8.80;99.90;;;;;;8401428;28;20222;-63
2023/10/20 15:58:30;;;;;;;57.67;33.20;;;8.80;99.90;;;;;;8394579;28;20185;-63
2023/10/20 16:02:32;;;;;;;56.33;32.00;;;8.80;99.90;;;;;;8401357;28;20227;-63
2023/10/20 16:06:33;;;;;;;54.60;31.10;;;8.80;99.90;;;;;;8403339;28;20178;-67
2023/10/20 16:10:34;;;;;;;55.37;33.07;;;8.80;99.90;;;;;;8395313;28;20188;-65
2023/10/20 16:14:37;;;;;;;54.43;31.40;;;8.70;99.90;;;;;;8405995;28;20211;-66
2023/10/20 16:18:37;;;;;;;51.80;31.33;;;8.70;99.90;;;;;;8405587;28;20214;-65
2023/10/20 16:22:38;;;;;;;54.97;32.33;;;8.70;99.90;;;;;;8406465;28;20192;-64
2023/10/20 16:26:39;;;;;;;56.67;34.00;;;8.70;99.90;;;;;;8408732;28;20177;-66
2023/10/20 16:30:40;;;;;;;51.53;31.97;;;8.70;99.90;;;;;;8405710;28;20271;-64
2023/10/20 16:34:41;;;;;;;48.27;29.50;;;8.70;99.90;;;;;;8404300;28;20220;-61
2023/10/20 16:38:44;;;;;;;54.27;31.00;;;8.60;99.90;;;;;;8407651;28;20275;-60
2023/10/20 16:42:45;;;;;;;57.40;32.17;;;8.60;99.90;;;;;;8405225;28;20185;-60
2023/10/20 16:46:46;;;;;;;55.60;31.20;;;8.60;99.90;;;;;;8408174;28;20195;-62
2023/10/20 16:50:58;;;;;;;55.33;31.77;;;8.60;99.90;;;;;;8406437;28;20186;-61
2023/10/20 16:54:59;;;;;;;61.40;33.60;;;8.70;99.90;;;;;;8405887;28;20277;-61
2023/10/20 16:59:00;;;;;;;54.77;31.87;;;8.70;99.90;;;;;;8407473;28;20200;-63
2023/10/20 17:03:00;;;;;;;52.77;30.87;;;8.70;99.90;;;;;;8404352;28;20187;-61
2023/10/20 17:07:01;;;;;;;55.43;30.17;;;8.70;99.90;;;;;;8386826;28;20193;-65
2023/10/20 17:11:03;;;;;;;54.87;33.30;;;8.70;99.90;;;;;;8406967;28;20445;-63
2023/10/20 17:15:05;;;;;;;52.03;32.07;;;8.70;99.90;;;;;;8405668;28;20295;-61
2023/10/20 17:19:05;;;;;;;56.63;34.70;;;8.70;99.90;;;;;;8404267;28;20252;-61
2023/10/20 17:23:08;;;;;;;59.87;35.80;;;8.70;99.90;;;;;;8400886;28;20219;-62
2023/10/20 17:27:09;;;;;;;69.73;43.47;;;8.70;99.90;;;;;;8404612;28;20193;-63
2023/10/20 17:31:10;;;;;;;61.10;35.30;;;8.70;99.90;;;;;;8403848;28;20196;-63
2023/10/20 17:35:11;;;;;;;64.87;37.73;;;8.70;99.90;;;;;;8403527;28;20235;-65
2023/10/20 17:39:12;;;;;;;60.77;35.70;;;8.70;99.90;;;;;;8401826;28;20535;-62
2023/10/20 17:43:13;;;;;;;78.03;40.83;;;8.70;99.90;;;;;;8402195;28;20215;-61
2023/10/20 17:47:14;;;;;;;58.60;33.37;;;8.80;99.90;;;;;;8400210;28;20186;-59
2023/10/20 17:51:16;;;;;;;61.57;35.83;;;8.70;99.90;;;;;;8404009;28;20227;-62
2023/10/20 17:55:17;;;;;;;57.50;34.73;;;8.70;99.90;;;;;;8409691;28;20295;-62
2023/10/20 17:59:19;;;;;;;59.57;34.93;;;8.80;99.90;;;;;;8406064;28;20207;-62
2023/10/20 18:03:19;;;;;;;55.80;35.20;;;8.80;99.90;;;;;;8401413;28;20276;-65
2023/10/20 18:07:20;;;;;;;66.87;35.07;;;8.80;99.90;;;;;;8412828;28;20184;-64
2023/10/20 18:11:21;;;;;;;74.07;40.03;;;8.80;99.90;;;;;;8370893;28;20228;-64
2023/10/20 18:15:22;;;;;;;114.03;70.20;;;8.80;99.90;;;;;;8374888;28;20211;-65
2023/10/20 18:19:23;;;;;;;82.70;50.60;;;8.80;99.90;;;;;;8357238;28;20195;-62
2023/10/20 18:23:25;;;;;;;79.23;52.80;;;8.80;99.90;;;;;;8359962;28;20528;-65
2023/10/20 18:27:26;;;;;;;75.87;46.63;;;8.80;99.90;;;;;;8361463;28;20189;-64
2023/10/20 18:31:28;;;;;;;55.47;34.63;;;8.80;99.90;;;;;;8365365;28;20196;-64
2023/10/20 18:35:34;;;;;;;86.87;52.30;;;8.80;99.90;;;;;;8359789;28;21051;-65
2023/10/20 18:39:36;;;;;;;77.40;43.77;;;8.80;99.90;;;;;;8357617;28;20444;-66
2023/10/20 18:43:37;;;;;;;63.33;35.83;;;8.90;99.90;;;;;;8354958;28;20194;-63
2023/10/20 18:47:38;;;;;;;74.97;38.67;;;8.80;99.90;;;;;;8355011;28;20299;-63
2023/10/20 18:51:39;;;;;;;73.97;39.30;;;8.90;99.90;;;;;;8359407;28;20401;-66
2023/10/20 18:55:40;;;;;;;59.10;34.23;;;8.90;99.90;;;;;;8365243;28;20232;-65
2023/10/20 18:59:41;;;;;;;58.67;35.47;;;8.90;99.90;;;;;;8370294;28;20205;-65
2023/10/20 19:03:42;;;;;;;71.07;39.80;;;8.90;99.90;;;;;;8359414;28;20198;-64
2023/10/20 19:07:44;;;;;;;68.37;39.30;;;8.90;99.90;;;;;;8364189;28;20287;-65
2023/10/20 19:11:46;;;;;;;72.13;42.80;;;8.90;99.90;;;;;;8362968;28;20232;-66
2023/10/20 19:15:46;;;;;;;63.73;38.63;;;8.90;99.90;;;;;;8353318;28;20187;-62
2023/10/20 19:19:50;;;;;;;54.87;34.87;;;8.90;99.90;;;;;;8357610;28;20173;-60
2023/10/20 19:23:51;;;;;;;57.97;35.60;;;9.00;99.90;;;;;;8355733;28;20224;-64
2023/10/20 19:27:52;;;;;;;57.90;34.90;;;8.90;99.90;;;;;;8364370;28;20219;-63
2023/10/20 19:31:54;;;;;;;56.73;36.83;;;8.90;99.90;;;;;;8355493;28;20224;-64
2023/10/20 19:35:55;;;;;;;46.97;32.17;;;9.00;99.90;;;;;;8357910;28;20184;-65
2023/10/20 19:39:56;;;;;;;54.87;36.03;;;9.00;99.90;;;;;;8361595;28;20184;-64
2023/10/20 19:43:57;;;;;;;49.83;32.17;;;9.00;99.90;;;;;;8355161;28;20754;-64
2023/10/20 19:47:58;;;;;;;58.20;34.80;;;8.90;99.90;;;;;;8364104;28;20273;-65
2023/10/20 19:51:59;;;;;;;48.77;30.93;;;8.90;99.90;;;;;;8357906;28;20209;-63
2023/10/20 19:56:00;;;;;;;64.80;36.87;;;9.00;99.90;;;;;;8358380;28;20194;-65
2023/10/20 20:00:03;;;;;;;45.33;30.10;;;9.00;99.90;;;;;;8358541;28;20202;-65
2023/10/20 20:04:04;;;;;;;49.90;29.63;;;8.90;99.90;;;;;;8365068;28;20193;-65
2023/10/20 20:08:06;;;;;;;55.57;33.00;;;8.90;99.90;;;;;;8354074;28;20183;-66
2023/10/20 20:12:07;;;;;;;50.07;29.20;;;9.00;99.90;;;;;;8356752;28;20214;-65
2023/10/20 20:16:15;;;;;;;45.87;28.93;;;9.00;99.90;;;;;;8360877;28;20174;-66
2023/10/20 20:20:16;;;;;;;43.50;27.37;;;8.90;99.90;;;;;;8360838;28;20177;-66
2023/10/20 20:24:17;;;;;;;45.67;27.77;;;8.90;99.90;;;;;;8356046;28;20187;-62
2023/10/20 20:28:19;;;;;;;53.67;31.00;;;8.90;99.90;;;;;;8352583;28;20182;-62
2023/10/20 20:32:20;;;;;;;52.03;31.60;;;8.90;99.90;;;;;;8357986;28;20208;-62
2023/10/20 20:36:20;;;;;;;65.57;33.93;;;8.90;99.90;;;;;;8358992;28;20190;-60
2023/10/20 20:40:22;;;;;;;46.37;27.27;;;8.90;99.90;;;;;;8356706;28;20182;-61
2023/10/20 20:44:23;;;;;;;52.53;31.07;;;8.90;99.90;;;;;;8354894;28;20236;-61
2023/10/20 20:48:24;;;;;;;57.23;31.67;;;8.90;99.90;;;;;;8356707;28;20190;-60
2023/10/20 20:52:25;;;;;;;47.07;29.03;;;8.90;99.90;;;;;;8360818;28;20238;-61
2023/10/20 20:56:26;;;;;;;38.73;24.50;;;8.90;99.90;;;;;;8354433;28;20197;-61
2023/10/20 21:00:26;;;;;;;53.57;35.00;;;8.90;99.90;;;;;;8357545;28;20209;-62
2023/10/20 21:04:35;;;;;;;46.90;28.30;;;8.90;99.90;;;;;;8357152;28;20194;-61
2023/10/20 21:08:36;;;;;;;43.87;27.60;;;8.90;99.90;;;;;;8361352;28;20273;-60
2023/10/20 21:12:37;;;;;;;47.60;28.57;;;8.80;99.90;;;;;;8358767;28;20254;-62